sensor_id;sensor_type;location;lat;lon;timestamp;temperature;humidity
63325;SHT31;49451;52.390;13.028;2023-02-22T18:48:13;7.42;86.59
63325;SHT31;49451;52.390;13.028;2023-02-22T18:50:38;7.40;86.79
63325;SHT31;49451;52.390;13.028;2023-02-22T18:53:04;7.40;86.47
63325;SHT31;49451;52.390;13.028;2023-02-22T18:55:29;7.50;86.33
63325;SHT31;49451;52.390;13.028;2023-02-22T18:57:55;7.51;86.03
63325;SHT31;49451;52.390;13.028;2023-02-22T19:00:20;7.36;86.71
63325;SHT31;49451;52.390;13.028;2023-02-22T19:02:49;7.36;86.63
63325;SHT31;49451;52.390;13.028;2023-02-22T19:05:14;7.29;86.86
63325;SHT31;49451;52.390;13.028;2023-02-22T19:07:42;7.39;86.72
63325;SHT31;49451;52.390;13.028;2023-02-22T19:10:08;7.46;86.28
63325;SHT31;49451;52.390;13.028;2023-02-22T19:12:33;7.20;87.11
63325;SHT31;49451;52.390;13.028;2023-02-22T19:14:58;7.27;86.88
63325;SHT31;49451;52.390;13.028;2023-02-22T19:17:28;7.22;86.88
63325;SHT31;49451;52.390;13.028;2023-02-22T19:19:54;7.30;86.70
63325;SHT31;49451;52.390;13.028;2023-02-22T19:22:22;7.33;86.88
63325;SHT31;49451;52.390;13.028;2023-02-22T19:24:50;7.42;86.31
63325;SHT31;49451;52.390;13.028;2023-02-22T19:27:20;7.29;86.53
63325;SHT31;49451;52.390;13.028;2023-02-22T19:29:45;7.29;86.53
63325;SHT31;49451;52.390;13.028;2023-02-22T19:32:11;7.02;87.30
63325;SHT31;49451;52.390;13.028;2023-02-22T19:34:37;7.08;87.34
63325;SHT31;49451;52.390;13.028;2023-02-22T19:37:04;7.06;87.14
63325;SHT31;49451;52.390;13.028;2023-02-22T19:39:31;7.05;87.02
63325;SHT31;49451;52.390;13.028;2023-02-22T19:41:57;7.12;87.25
63325;SHT31;49451;52.390;13.028;2023-02-22T19:44:24;7.18;86.56
63325;SHT31;49451;52.390;13.028;2023-02-22T19:46:51;7.20;86.15
63325;SHT31;49451;52.390;13.028;2023-02-22T19:49:20;7.01;86.86
63325;SHT31;49451;52.390;13.028;2023-02-22T19:51:46;6.99;86.89
63325;SHT31;49451;52.390;13.028;2023-02-22T19:54:12;7.20;86.46
63325;SHT31;49451;52.390;13.028;2023-02-22T19:56:41;7.11;86.34
63325;SHT31;49451;52.390;13.028;2023-02-22T19:59:07;7.02;86.57
63325;SHT31;49451;52.390;13.028;2023-02-22T20:01:38;7.06;86.58
63325;SHT31;49451;52.390;13.028;2023-02-22T20:04:08;7.15;86.03
63325;SHT31;49451;52.390;13.028;2023-02-22T20:06:41;7.13;85.60
63325;SHT31;49451;52.390;13.028;2023-02-22T20:09:11;7.11;86.09
63325;SHT31;49451;52.390;13.028;2023-02-22T20:11:38;7.09;85.92
63325;SHT31;49451;52.390;13.028;2023-02-22T20:14:03;7.09;85.82
63325;SHT31;49451;52.390;13.028;2023-02-22T20:16:31;6.98;86.23
63325;SHT31;49451;52.390;13.028;2023-02-22T20:18:57;7.09;85.43
63325;SHT31;49451;52.390;13.028;2023-02-22T20:23:51;7.16;85.27
63325;SHT31;49451;52.390;13.028;2023-02-22T20:26:22;7.19;84.88
63325;SHT31;49451;52.390;13.028;2023-02-22T20:28:48;7.20;84.42
63325;SHT31;49451;52.390;13.028;2023-02-22T20:31:15;7.09;84.89
63325;SHT31;49451;52.390;13.028;2023-02-22T20:33:44;7.16;85.03
63325;SHT31;49451;52.390;13.028;2023-02-22T20:36:15;7.13;84.31
63325;SHT31;49451;52.390;13.028;2023-02-22T20:38:41;7.15;84.76
63325;SHT31;49451;52.390;13.028;2023-02-22T20:41:08;7.08;84.61
63325;SHT31;49451;52.390;13.028;2023-02-22T20:43:34;7.12;84.69
63325;SHT31;49451;52.390;13.028;2023-02-22T20:46:03;7.08;84.55
63325;SHT31;49451;52.390;13.028;2023-02-22T20:48:29;7.01;84.56
63325;SHT31;49451;52.390;13.028;2023-02-22T20:50:55;7.01;84.56
63325;SHT31;49451;52.390;13.028;2023-02-22T20:53:21;6.99;84.48
63325;SHT31;49451;52.390;13.028;2023-02-22T20:55:50;6.98;84.72
63325;SHT31;49451;52.390;13.028;2023-02-22T20:58:16;6.98;84.51
63325;SHT31;49451;52.390;13.028;2023-02-22T21:00:45;7.02;84.58
63325;SHT31;49451;52.390;13.028;2023-02-22T21:03:10;7.11;84.33
63325;SHT31;49451;52.390;13.028;2023-02-22T21:05:45;7.03;84.56
63325;SHT31;49451;52.390;13.028;2023-02-22T21:08:12;6.95;84.68
63325;SHT31;49451;52.390;13.028;2023-02-22T21:10:42;6.88;84.71
63325;SHT31;49451;52.390;13.028;2023-02-22T21:13:08;6.95;84.78
63325;SHT31;49451;52.390;13.028;2023-02-22T21:15:34;7.05;84.21
63325;SHT31;49451;52.390;13.028;2023-02-22T21:18:01;6.98;84.15
63325;SHT31;49451;52.390;13.028;2023-02-22T21:20:27;7.02;83.88
63325;SHT31;49451;52.390;13.028;2023-02-22T21:22:52;6.99;84.16
63325;SHT31;49451;52.390;13.028;2023-02-22T21:25:20;7.01;83.92
63325;SHT31;49451;52.390;13.028;2023-02-22T21:27:45;7.02;83.69
63325;SHT31;49451;52.390;13.028;2023-02-22T21:30:12;7.03;83.28
63325;SHT31;49451;52.390;13.028;2023-02-22T21:32:39;7.06;83.32
63325;SHT31;49451;52.390;13.028;2023-02-22T21:35:05;7.02;83.39
63325;SHT31;49451;52.390;13.028;2023-02-22T21:37:30;6.93;83.55
63325;SHT31;49451;52.390;13.028;2023-02-22T21:39:58;6.81;83.71
63325;SHT31;49451;52.390;13.028;2023-02-22T21:42:23;6.84;83.38
63325;SHT31;49451;52.390;13.028;2023-02-22T21:44:48;6.67;84.49
63325;SHT31;49451;52.390;13.028;2023-02-22T21:47:18;6.77;83.77
63325;SHT31;49451;52.390;13.028;2023-02-22T21:49:43;6.81;83.70
63325;SHT31;49451;52.390;13.028;2023-02-22T21:52:09;6.61;84.80
63325;SHT31;49451;52.390;13.028;2023-02-22T21:54:34;6.53;85.03
63325;SHT31;49451;52.390;13.028;2023-02-22T21:56:59;6.70;84.09
63325;SHT31;49451;52.390;13.028;2023-02-22T21:59:25;6.58;84.25
63325;SHT31;49451;52.390;13.028;2023-02-22T22:01:54;6.61;84.28
63325;SHT31;49451;52.390;13.028;2023-02-22T22:04:28;6.68;83.69
63325;SHT31;49451;52.390;13.028;2023-02-22T22:06:55;6.36;84.83
63325;SHT31;49451;52.390;13.028;2023-02-22T22:09:22;6.37;84.96
63325;SHT31;49451;52.390;13.028;2023-02-22T22:11:53;6.38;85.27
63325;SHT31;49451;52.390;13.028;2023-02-22T22:14:21;6.37;84.80
63325;SHT31;49451;52.390;13.028;2023-02-22T22:16:49;6.40;84.53
63325;SHT31;49451;52.390;13.028;2023-02-22T22:19:14;6.44;84.10
63325;SHT31;49451;52.390;13.028;2023-02-22T22:21:40;6.38;84.57
63325;SHT31;49451;52.390;13.028;2023-02-22T22:24:07;6.53;83.94
63325;SHT31;49451;52.390;13.028;2023-02-22T22:26:33;6.51;83.79
63325;SHT31;49451;52.390;13.028;2023-02-22T22:28:59;6.41;83.72
63325;SHT31;49451;52.390;13.028;2023-02-22T22:31:26;6.40;83.64
63325;SHT31;49451;52.390;13.028;2023-02-22T22:33:53;6.41;84.04
63325;SHT31;49451;52.390;13.028;2023-02-22T22:36:20;6.37;83.87
63325;SHT31;49451;52.390;13.028;2023-02-22T22:38:46;6.47;83.44
63325;SHT31;49451;52.390;13.028;2023-02-22T22:41:15;6.40;83.16
63325;SHT31;49451;52.390;13.028;2023-02-22T22:43:45;6.46;82.75
63325;SHT31;49451;52.390;13.028;2023-02-22T22:46:11;6.43;83.08
63325;SHT31;49451;52.390;13.028;2023-02-22T22:48:37;6.36;83.32
63325;SHT31;49451;52.390;13.028;2023-02-22T22:51:06;6.33;83.02
63325;SHT31;49451;52.390;13.028;2023-02-22T22:53:36;6.48;82.76
63325;SHT31;49451;52.390;13.028;2023-02-22T22:56:03;6.34;82.73
63325;SHT31;49451;52.390;13.028;2023-02-22T22:58:32;6.25;83.68
